createdAt,value
2018-10-19T00:02:26.429Z,54.50
2018-10-19T00:04:57.337Z,54.60
2018-10-19T00:07:28.341Z,54.60
2018-10-19T00:09:59.178Z,54.60
2018-10-19T00:12:30.007Z,54.60
2018-10-19T00:15:01.342Z,54.60
2018-10-19T00:17:32.026Z,54.60
2018-10-19T00:20:03.755Z,54.60
2018-10-19T00:22:34.823Z,54.50
2018-10-19T00:25:06.938Z,54.50
2018-10-19T00:27:37.839Z,54.60
2018-10-19T00:30:10.448Z,54.60
2018-10-19T00:32:41.509Z,54.60
2018-10-19T00:35:12.238Z,54.60
2018-10-19T00:37:43.310Z,54.60
2018-10-19T00:40:14.154Z,54.60
2018-10-19T00:42:45.005Z,54.60
2018-10-19T00:45:16.249Z,54.60
2018-10-19T00:47:47.101Z,54.60
2018-10-19T00:50:18.103Z,54.60
2018-10-19T00:52:49.020Z,54.60
2018-10-19T00:55:19.829Z,54.60
2018-10-19T00:57:50.578Z,54.50
2018-10-19T01:00:21.823Z,54.60
2018-10-19T01:02:53.099Z,54.60
2018-10-19T01:05:32.248Z,54.50
2018-10-19T01:08:03.586Z,54.60
2018-10-19T01:10:34.728Z,54.60
2018-10-19T01:13:06.173Z,54.50
2018-10-19T01:15:37.117Z,54.60
2018-10-19T01:18:08.048Z,54.60
2018-10-19T01:20:39.255Z,54.70
2018-10-19T01:23:10.092Z,54.60
2018-10-19T01:25:41.787Z,54.60
2018-10-19T01:28:13.190Z,54.60
2018-10-19T01:30:43.956Z,54.60
2018-10-19T01:33:14.868Z,54.60
2018-10-19T01:35:45.927Z,54.60
2018-10-19T01:38:16.715Z,54.60
2018-10-19T01:40:47.805Z,54.60
2018-10-19T01:43:18.738Z,54.60
2018-10-19T01:45:54.721Z,54.60
2018-10-19T01:48:26.125Z,54.70
2018-10-19T01:50:57.573Z,54.70
2018-10-19T01:53:28.699Z,54.70
2018-10-19T01:55:59.419Z,54.70
2018-10-19T01:58:30.517Z,54.80
2018-10-19T02:01:01.835Z,54.80
2018-10-19T02:03:32.762Z,54.80
2018-10-19T02:06:04.021Z,54.80
2018-10-19T02:08:35.132Z,54.90
2018-10-19T02:11:06.892Z,54.90
2018-10-19T02:13:37.768Z,55.90
2018-10-19T02:16:08.506Z,54.80
2018-10-19T02:18:39.526Z,54.90
2018-10-19T02:21:10.403Z,54.90
2018-10-19T02:23:41.416Z,55.00
2018-10-19T02:26:12.296Z,54.90
2018-10-19T02:28:43.050Z,55.50
2018-10-19T02:31:14.044Z,54.80
2018-10-19T02:33:44.867Z,54.90
2018-10-19T02:36:15.573Z,54.90
2018-10-19T02:38:46.832Z,54.80
2018-10-19T02:41:18.075Z,54.80
2018-10-19T02:43:49.039Z,54.80
2018-10-19T02:46:19.754Z,54.80
2018-10-19T02:48:50.448Z,54.80
2018-10-19T02:51:21.298Z,54.90
2018-10-19T02:53:51.973Z,54.80
2018-10-19T02:56:23.201Z,54.90
2018-10-19T02:58:54.055Z,55.00
2018-10-19T03:01:24.938Z,54.70
2018-10-19T03:03:55.807Z,55.00
2018-10-19T03:06:26.936Z,55.10
2018-10-19T03:08:57.627Z,55.10
2018-10-19T03:11:28.340Z,55.20
2018-10-19T03:13:59.250Z,55.20
2018-10-19T03:16:30.128Z,55.30
2018-10-19T03:19:00.873Z,55.40
2018-10-19T03:21:31.645Z,55.40
2018-10-19T03:24:02.461Z,55.70
2018-10-19T03:26:33.645Z,55.60
2018-10-19T03:29:04.476Z,55.70
2018-10-19T03:31:35.556Z,55.70
2018-10-19T03:34:06.812Z,55.80
2018-10-19T03:36:37.668Z,55.90
2018-10-19T03:39:09.901Z,56.00
2018-10-19T03:41:41.308Z,56.00
2018-10-19T03:44:12.103Z,56.10
2018-10-19T03:46:42.930Z,56.20
2018-10-19T03:49:13.682Z,56.10
2018-10-19T03:51:44.545Z,56.10
2018-10-19T03:54:15.262Z,56.20
2018-10-19T03:56:46.113Z,56.30
2018-10-19T03:59:16.902Z,56.30
2018-10-19T04:01:47.768Z,56.40
2018-10-19T04:04:18.847Z,56.50
2018-10-19T04:06:50.062Z,56.40
2018-10-19T04:09:20.899Z,56.60
2018-10-19T04:11:51.821Z,56.70
2018-10-19T04:14:22.840Z,56.70
2018-10-19T04:16:53.640Z,56.60
2018-10-19T04:19:24.567Z,56.70
2018-10-19T04:21:55.434Z,56.80
2018-10-19T04:24:26.185Z,56.70
2018-10-19T04:26:57.298Z,56.80
2018-10-19T04:29:28.461Z,56.90
2018-10-19T04:31:59.612Z,56.90
2018-10-19T04:34:30.652Z,56.90
2018-10-19T04:37:05.228Z,56.90
2018-10-19T04:39:36.176Z,56.90
2018-10-19T04:42:07.311Z,56.90
2018-10-19T04:44:38.234Z,56.90
2018-10-19T04:47:09.033Z,56.80
2018-10-19T04:49:40.045Z,56.70
2018-10-19T04:52:10.875Z,57.40
2018-10-19T04:54:41.731Z,56.60
2018-10-19T04:57:12.707Z,56.70
2018-10-19T04:59:43.645Z,57.10
2018-10-19T05:02:14.604Z,56.60
2018-10-19T05:04:45.408Z,56.60
2018-10-19T05:07:15.958Z,56.70
2018-10-19T05:09:46.923Z,56.50
2018-10-19T05:12:17.782Z,56.60
2018-10-19T05:14:48.937Z,56.50
2018-10-19T05:17:19.933Z,56.60
2018-10-19T05:19:51.145Z,56.60
2018-10-19T05:22:22.129Z,56.50
2018-10-19T05:24:53.142Z,56.50
2018-10-19T05:27:24.471Z,56.50
2018-10-19T05:29:55.496Z,57.10
2018-10-19T05:32:26.655Z,56.40
2018-10-19T05:34:57.538Z,56.50
2018-10-19T05:37:28.705Z,56.50
2018-10-19T05:40:00.789Z,56.50
2018-10-19T05:42:31.917Z,56.50
2018-10-19T05:45:03.383Z,56.60
2018-10-19T05:47:34.312Z,56.60
2018-10-19T05:50:06.232Z,57.00
2018-10-19T05:52:37.689Z,56.70
2018-10-19T05:55:10.399Z,57.20
2018-10-19T05:57:41.401Z,56.70
2018-10-19T06:00:12.786Z,56.70
2018-10-19T06:02:44.047Z,56.70
2018-10-19T06:05:15.405Z,56.70
2018-10-19T06:07:46.694Z,56.70
2018-10-19T06:10:17.605Z,56.70
2018-10-19T06:12:48.434Z,56.80
2018-10-19T06:15:19.482Z,56.90
2018-10-19T06:17:50.732Z,56.90
2018-10-19T06:20:21.489Z,56.90
2018-10-19T06:22:52.225Z,57.00
2018-10-19T06:25:23.736Z,56.90
2018-10-19T06:27:55.487Z,57.00
2018-10-19T06:30:26.822Z,57.00
2018-10-19T06:32:57.878Z,57.10
2018-10-19T06:35:28.739Z,57.00
2018-10-19T06:37:59.946Z,57.20
2018-10-19T06:40:30.943Z,57.20
2018-10-19T06:43:02.065Z,57.30
2018-10-19T06:45:33.663Z,57.40
2018-10-19T06:48:05.470Z,57.50
2018-10-19T06:50:36.628Z,57.50
2018-10-19T06:53:09.518Z,57.40
2018-10-19T06:55:40.698Z,57.60
2018-10-19T06:58:11.836Z,57.50
2018-10-19T07:00:43.089Z,57.50
2018-10-19T07:03:14.239Z,57.50
2018-10-19T07:05:45.457Z,57.50
2018-10-19T07:08:16.843Z,57.50
2018-10-19T07:10:48.850Z,57.60
2018-10-19T07:13:20.057Z,57.50
2018-10-19T07:15:51.516Z,57.50
2018-10-19T07:18:22.720Z,57.50
2018-10-19T07:20:53.567Z,57.50
2018-10-19T07:23:24.611Z,57.60
2018-10-19T07:25:55.717Z,57.50
2018-10-19T07:28:26.853Z,57.50
2018-10-19T07:30:58.524Z,57.50
2018-10-19T07:33:29.482Z,57.50
2018-10-19T07:36:00.757Z,57.50
2018-10-19T07:38:31.716Z,57.50
2018-10-19T07:41:02.940Z,57.50
2018-10-19T07:43:33.882Z,57.50
2018-10-19T07:46:05.040Z,57.60
2018-10-19T07:48:36.018Z,57.60
2018-10-19T07:51:07.277Z,57.70
2018-10-19T07:53:38.107Z,57.60
2018-10-19T07:56:09.078Z,57.60
2018-10-19T07:58:40.238Z,57.60
2018-10-19T08:01:11.593Z,57.50
2018-10-19T08:03:43.176Z,57.40
2018-10-19T08:06:14.051Z,57.40
2018-10-19T08:08:45.329Z,57.40
2018-10-19T08:11:17.420Z,57.10
2018-10-19T08:13:48.531Z,57.40
2018-10-19T08:16:19.876Z,57.30
2018-10-19T08:18:50.986Z,57.30
2018-10-19T08:21:22.544Z,57.30
2018-10-19T08:23:53.761Z,57.30
2018-10-19T08:26:25.187Z,57.30
2018-10-19T08:28:55.989Z,57.30
2018-10-19T08:31:27.130Z,57.80
2018-10-19T08:33:58.376Z,57.20
2018-10-19T08:36:29.457Z,57.20
2018-10-19T08:39:00.550Z,57.10
2018-10-19T08:41:31.810Z,57.20
2018-10-19T08:44:03.205Z,57.10
2018-10-19T08:46:38.233Z,57.10
2018-10-19T08:49:10.902Z,56.90
2018-10-19T08:51:42.880Z,57.00
2018-10-19T08:54:14.198Z,57.00
2018-10-19T08:56:47.020Z,56.90
2018-10-19T08:59:18.092Z,56.80
2018-10-19T09:01:49.142Z,56.60
2018-10-19T09:04:19.898Z,56.50
2018-10-19T09:06:50.960Z,56.60
2018-10-19T09:09:22.117Z,56.60
2018-10-19T09:11:53.015Z,56.70
2018-10-19T09:14:47.482Z,56.60
2018-10-19T09:17:18.486Z,56.60
2018-10-19T09:19:50.382Z,56.60
2018-10-19T09:22:21.730Z,56.60
2018-10-19T09:24:53.017Z,56.50
2018-10-19T09:27:23.882Z,56.50
2018-10-19T09:29:54.855Z,56.60
2018-10-19T09:32:25.887Z,56.60
2018-10-19T09:34:57.025Z,56.40
2018-10-19T09:37:28.031Z,56.30
2018-10-19T09:39:58.952Z,57.00
2018-10-19T09:42:30.339Z,57.30
2018-10-19T09:45:01.307Z,57.20
2018-10-19T09:47:32.688Z,57.40
2018-10-19T09:50:03.992Z,58.00
2018-10-19T09:52:34.870Z,58.00
2018-10-19T09:55:08.165Z,57.70
2018-10-19T09:57:39.463Z,57.30
2018-10-19T10:00:18.616Z,56.60
2018-10-19T10:02:50.174Z,56.20
2018-10-19T10:05:21.110Z,56.10
2018-10-19T10:07:52.073Z,55.80
2018-10-19T10:10:23.434Z,55.90
2018-10-19T10:12:54.281Z,55.60
2018-10-19T10:15:25.376Z,55.10
2018-10-19T10:17:56.514Z,54.60
2018-10-19T10:20:27.752Z,54.00
2018-10-19T10:22:59.798Z,53.80
2018-10-19T10:25:31.547Z,53.40
2018-10-19T10:28:03.601Z,52.60
2018-10-19T10:30:35.627Z,51.90
2018-10-19T10:33:07.045Z,51.00
2018-10-19T10:35:38.567Z,49.90
2018-10-19T10:38:10.250Z,48.80
2018-10-19T10:40:41.713Z,48.40
2018-10-19T10:43:13.202Z,48.30
2018-10-19T10:45:44.534Z,47.60
2018-10-19T10:48:16.230Z,46.90
2018-10-19T10:50:47.673Z,47.30
2018-10-19T10:53:19.828Z,47.40
2018-10-19T10:55:51.329Z,47.70
2018-10-19T10:58:22.683Z,45.20
2018-10-19T11:01:00.868Z,45.10
2018-10-19T11:03:32.251Z,45.40
2018-10-19T11:06:03.761Z,45.20
2018-10-19T11:08:35.367Z,44.60
2018-10-19T11:11:12.206Z,44.40
2018-10-19T11:13:44.399Z,43.80
2018-10-19T11:16:15.809Z,43.80
2018-10-19T11:18:47.735Z,43.20
2018-10-19T11:21:19.347Z,42.80
2018-10-19T11:23:50.754Z,42.10
2018-10-19T11:26:22.395Z,41.90
2018-10-19T11:28:53.847Z,41.50
2018-10-19T11:31:25.337Z,41.30
2018-10-19T11:33:57.100Z,41.20
2018-10-19T11:36:28.736Z,39.70
2018-10-19T11:39:00.070Z,38.90
2018-10-19T11:41:31.738Z,38.50
2018-10-19T11:44:03.156Z,38.60
2018-10-19T11:46:35.163Z,39.30
2018-10-19T11:49:07.156Z,40.00
2018-10-19T11:51:38.764Z,40.70
2018-10-19T11:54:10.234Z,41.10
2018-10-19T11:56:42.095Z,41.10
2018-10-19T11:59:13.533Z,41.10
2018-10-19T12:01:45.292Z,40.70
2018-10-19T12:04:17.031Z,40.40
2018-10-19T12:06:48.577Z,40.10
2018-10-19T12:09:19.973Z,39.40
2018-10-19T12:11:51.588Z,39.10
2018-10-19T12:14:23.219Z,38.90
2018-10-19T12:16:54.852Z,38.80
2018-10-19T12:19:26.366Z,38.80
2018-10-19T12:21:57.851Z,38.50
2018-10-19T12:24:29.265Z,38.30
2018-10-19T12:27:00.632Z,37.80
2018-10-19T12:29:32.126Z,37.50
2018-10-19T12:32:03.726Z,37.30
2018-10-19T12:34:35.193Z,37.20
2018-10-19T12:37:07.891Z,36.60
2018-10-19T12:39:40.074Z,36.40
2018-10-19T12:42:11.910Z,35.90
2018-10-19T12:44:43.760Z,35.30
2018-10-19T12:47:37.484Z,34.70
2018-10-19T12:50:09.514Z,34.70
2018-10-19T12:52:41.022Z,34.80
2018-10-19T12:55:12.535Z,34.70
2018-10-19T12:57:44.408Z,34.50
2018-10-19T13:00:15.891Z,34.30
2018-10-19T13:02:47.465Z,34.40
2018-10-19T13:05:18.914Z,34.50
2018-10-19T13:07:50.785Z,34.60
2018-10-19T13:10:22.345Z,34.50
2018-10-19T13:12:54.263Z,34.70
2018-10-19T13:15:25.240Z,34.80
2018-10-19T13:17:56.357Z,35.10
2018-10-19T13:20:27.600Z,35.40
2018-10-19T13:22:58.745Z,35.50
2018-10-19T13:25:29.827Z,35.80
2018-10-19T13:28:01.085Z,36.00
2018-10-19T13:30:32.085Z,36.30
2018-10-19T13:33:03.420Z,36.40
2018-10-19T13:35:34.692Z,36.60
2018-10-19T13:38:05.783Z,36.80
2018-10-19T13:40:36.629Z,36.90
2018-10-19T13:43:07.983Z,37.10
2018-10-19T13:45:39.088Z,37.30
2018-10-19T13:48:10.307Z,37.60
2018-10-19T13:50:41.175Z,37.80
2018-10-19T13:53:13.331Z,38.00
2018-10-19T13:55:44.543Z,37.60
2018-10-19T13:58:15.346Z,38.20
2018-10-19T14:00:47.009Z,38.40
2018-10-19T14:03:17.712Z,38.50
2018-10-19T14:05:48.759Z,38.70
2018-10-19T14:08:20.271Z,39.00
2018-10-19T14:10:51.284Z,39.10
2018-10-19T14:13:22.257Z,39.10
2018-10-19T14:15:53.293Z,39.20
2018-10-19T14:18:24.426Z,39.50
2018-10-19T14:20:55.801Z,39.50
2018-10-19T14:23:27.040Z,39.60
2018-10-19T14:25:57.965Z,39.60
2018-10-19T14:28:29.462Z,39.50
2018-10-19T14:31:00.615Z,39.60
2018-10-19T14:33:31.691Z,39.70
2018-10-19T14:36:02.837Z,39.40
2018-10-19T14:38:34.155Z,39.40
2018-10-19T14:41:05.461Z,39.50
2018-10-19T14:43:37.007Z,39.50
2018-10-19T14:46:08.119Z,39.50
2018-10-19T14:48:39.467Z,39.50
2018-10-19T14:51:10.203Z,39.50
2018-10-19T14:53:41.271Z,39.60
2018-10-19T14:56:12.121Z,39.00
2018-10-19T14:58:42.964Z,39.60
2018-10-19T15:01:13.826Z,39.60
2018-10-19T15:03:44.888Z,39.90
2018-10-19T15:06:16.401Z,39.80
2018-10-19T15:08:47.646Z,39.90
2018-10-19T15:11:18.948Z,40.00
2018-10-19T15:13:49.646Z,40.10
2018-10-19T15:16:20.675Z,40.10
2018-10-19T15:18:52.365Z,40.30
2018-10-19T15:21:23.302Z,40.40
2018-10-19T15:23:54.926Z,40.40
2018-10-19T15:26:25.811Z,40.50
2018-10-19T15:28:57.036Z,40.60
2018-10-19T15:31:28.024Z,40.70
2018-10-19T15:33:58.902Z,40.80
2018-10-19T15:36:29.888Z,40.80
2018-10-19T15:39:01.328Z,41.10
2018-10-19T15:41:32.466Z,41.00
2018-10-19T15:44:03.461Z,41.20
2018-10-19T15:46:34.864Z,41.20
2018-10-19T15:49:06.288Z,41.20
2018-10-19T15:51:38.014Z,41.40
2018-10-19T15:54:09.288Z,41.40
2018-10-19T15:56:40.403Z,41.50
2018-10-19T15:59:11.404Z,41.70
2018-10-19T16:01:42.567Z,41.70
2018-10-19T16:04:13.755Z,41.80
2018-10-19T16:06:44.967Z,42.00
2018-10-19T16:09:16.512Z,42.10
2018-10-19T16:11:47.625Z,42.10
2018-10-19T16:14:18.743Z,42.30
2018-10-19T16:16:49.659Z,42.10
2018-10-19T16:19:20.720Z,42.20
2018-10-19T16:21:52.091Z,42.30
2018-10-19T16:24:23.362Z,42.30
2018-10-19T16:26:55.672Z,42.30
2018-10-19T16:29:27.310Z,42.40
2018-10-19T16:31:58.264Z,42.60
2018-10-19T16:34:29.532Z,42.60
2018-10-19T16:37:00.349Z,42.60
2018-10-19T16:39:31.493Z,42.70
2018-10-19T16:42:02.842Z,42.80
2018-10-19T16:44:33.995Z,42.80
2018-10-19T16:47:05.108Z,42.90
2018-10-19T16:49:36.208Z,42.90
2018-10-19T16:52:07.414Z,43.80
2018-10-19T16:54:38.485Z,43.00
2018-10-19T16:57:09.765Z,43.20
2018-10-19T16:59:40.867Z,43.20
2018-10-19T17:02:11.995Z,43.20
2018-10-19T17:04:43.027Z,43.30
2018-10-19T17:07:14.066Z,43.50
2018-10-19T17:09:45.214Z,43.50
2018-10-19T17:12:16.552Z,43.50
2018-10-19T17:14:47.561Z,43.70
2018-10-19T17:17:18.498Z,43.90
2018-10-19T17:19:50.168Z,44.00
2018-10-19T17:22:21.249Z,44.20
2018-10-19T17:24:52.295Z,44.20
2018-10-19T17:27:23.323Z,44.20
2018-10-19T17:29:54.313Z,44.30
2018-10-19T17:32:25.356Z,44.60
2018-10-19T17:34:56.787Z,44.50
2018-10-19T17:37:28.212Z,44.60
2018-10-19T17:39:59.501Z,44.70
2018-10-19T17:42:30.683Z,44.70
2018-10-19T17:45:01.994Z,44.90
2018-10-19T17:47:33.384Z,45.00
2018-10-19T17:50:04.714Z,45.00
2018-10-19T17:52:35.709Z,45.20
2018-10-19T17:55:09.664Z,45.10
2018-10-19T17:57:42.714Z,45.50
2018-10-19T18:00:14.307Z,45.30
2018-10-19T18:02:45.896Z,45.50
2018-10-19T18:05:16.857Z,45.60
2018-10-19T18:07:48.261Z,45.90
2018-10-19T18:10:19.179Z,46.00
2018-10-19T18:12:50.018Z,46.10
2018-10-19T18:15:21.377Z,46.10
2018-10-19T18:17:52.474Z,46.30
2018-10-19T18:20:23.812Z,46.30
2018-10-19T18:22:54.730Z,46.40
2018-10-19T18:25:25.869Z,46.30
2018-10-19T18:27:56.910Z,46.40
2018-10-19T18:30:27.971Z,46.50
2018-10-19T18:32:59.021Z,46.50
2018-10-19T18:35:30.030Z,46.70
2018-10-19T18:38:01.515Z,46.90
2018-10-19T18:40:32.519Z,46.70
2018-10-19T18:43:03.499Z,46.70
2018-10-19T18:45:34.421Z,46.80
2018-10-19T18:48:07.311Z,46.90
2018-10-19T18:50:38.413Z,46.90
2018-10-19T18:53:09.857Z,46.90
2018-10-19T18:55:40.985Z,46.90
2018-10-19T18:58:12.093Z,46.90
2018-10-19T19:00:44.483Z,46.90
2018-10-19T19:03:15.708Z,47.00
2018-10-19T19:05:46.776Z,47.00
2018-10-19T19:08:17.885Z,47.00
2018-10-19T19:10:48.597Z,47.00
2018-10-19T19:13:24.848Z,47.00
2018-10-19T19:15:56.773Z,47.00
2018-10-19T19:18:27.875Z,47.00
2018-10-19T19:20:58.947Z,47.10
2018-10-19T19:23:29.983Z,47.10
2018-10-19T19:26:06.617Z,47.20
2018-10-19T19:28:37.527Z,47.20
2018-10-19T19:31:08.517Z,46.90
2018-10-19T19:33:45.189Z,46.30
2018-10-19T19:36:16.317Z,46.80
2018-10-19T19:38:47.529Z,46.80
2018-10-19T19:41:23.627Z,46.70
2018-10-19T19:43:54.619Z,46.60
2018-10-19T19:46:26.407Z,46.70
2018-10-19T19:49:02.633Z,46.70
2018-10-19T19:51:34.021Z,46.60
2018-10-19T19:54:05.418Z,46.70
2018-10-19T19:56:36.522Z,46.70
2018-10-19T19:59:07.603Z,46.80
2018-10-19T20:01:38.538Z,46.70
2018-10-19T20:04:09.417Z,46.70
2018-10-19T20:06:40.892Z,46.80
2018-10-19T20:09:11.697Z,46.80
2018-10-19T20:11:42.844Z,46.80
2018-10-19T20:14:13.959Z,46.80
2018-10-19T20:16:44.962Z,46.80
2018-10-19T20:19:15.896Z,46.80
2018-10-19T20:21:46.917Z,46.80
2018-10-19T20:24:17.987Z,46.80
2018-10-19T20:26:49.061Z,47.00
2018-10-19T20:29:20.053Z,47.00
2018-10-19T20:31:51.187Z,46.90
2018-10-19T20:34:22.186Z,47.00
2018-10-19T20:36:53.327Z,47.00
2018-10-19T20:39:24.588Z,47.20
2018-10-19T20:41:55.863Z,47.10
2018-10-19T20:44:26.722Z,47.30
2018-10-19T20:46:57.599Z,47.30
2018-10-19T20:49:28.267Z,47.20
2018-10-19T20:51:58.985Z,47.40
2018-10-19T20:54:29.957Z,46.50
2018-10-19T20:57:00.865Z,47.40
2018-10-19T20:59:31.708Z,47.60
2018-10-19T21:02:02.595Z,47.50
2018-10-19T21:04:33.643Z,47.70
2018-10-19T21:07:04.695Z,47.80
2018-10-19T21:09:35.677Z,47.70
2018-10-19T21:12:06.929Z,47.80
2018-10-19T21:14:37.782Z,47.70
2018-10-19T21:17:08.913Z,47.80
2018-10-19T21:19:40.481Z,48.10
2018-10-19T21:22:11.290Z,48.00
2018-10-19T21:24:42.298Z,48.10
2018-10-19T21:27:13.539Z,48.20
2018-10-19T21:29:44.755Z,48.20
2018-10-19T21:32:15.724Z,48.10
2018-10-19T21:34:46.950Z,48.40
2018-10-19T21:37:17.986Z,48.30
2018-10-19T21:39:49.136Z,48.30
2018-10-19T21:42:20.085Z,48.40
2018-10-19T21:44:51.135Z,48.60
2018-10-19T21:47:22.093Z,48.60
2018-10-19T21:49:53.246Z,48.60
2018-10-19T21:52:24.492Z,49.20
2018-10-19T21:54:55.525Z,48.70
2018-10-19T21:57:26.410Z,48.80
2018-10-19T21:59:57.327Z,48.80
2018-10-19T22:02:28.720Z,48.90
2018-10-19T22:04:59.602Z,49.50
2018-10-19T22:07:30.929Z,48.90
2018-10-19T22:10:02.175Z,49.10
2018-10-19T22:12:32.769Z,49.10
2018-10-19T22:15:04.001Z,49.20
2018-10-19T22:17:34.851Z,49.20
2018-10-19T22:20:06.595Z,49.20
2018-10-19T22:22:37.893Z,49.30
2018-10-19T22:25:08.836Z,49.40
2018-10-19T22:27:39.793Z,49.50
2018-10-19T22:30:11.414Z,49.60
2018-10-19T22:32:42.286Z,50.20
2018-10-19T22:35:13.158Z,49.60
2018-10-19T22:37:44.139Z,49.80
2018-10-19T22:40:15.058Z,49.70
2018-10-19T22:42:45.851Z,49.70
2018-10-19T22:45:16.767Z,49.90
2018-10-19T22:47:47.716Z,50.10
2018-10-19T22:50:18.837Z,50.80
2018-10-19T22:52:49.845Z,50.20
2018-10-19T22:55:20.794Z,50.30
2018-10-19T22:57:51.774Z,50.40
2018-10-19T23:00:23.554Z,50.40
2018-10-19T23:02:54.528Z,50.40
2018-10-19T23:05:25.478Z,50.50
2018-10-19T23:07:56.589Z,50.60
2018-10-19T23:10:27.449Z,50.60
2018-10-19T23:12:58.246Z,50.70
2018-10-19T23:15:29.560Z,50.80
2018-10-19T23:18:01.827Z,50.90
2018-10-19T23:20:32.879Z,51.00
2018-10-19T23:23:04.306Z,51.20
2018-10-19T23:25:35.266Z,51.00
2018-10-19T23:28:06.821Z,51.00
2018-10-19T23:30:37.834Z,51.00
2018-10-19T23:33:08.901Z,51.10
2018-10-19T23:35:40.408Z,51.30
2018-10-19T23:38:11.505Z,51.20
2018-10-19T23:40:42.325Z,51.30
2018-10-19T23:43:13.295Z,51.30
2018-10-19T23:45:44.210Z,51.50
2018-10-19T23:48:15.905Z,51.50
2018-10-19T23:50:46.629Z,51.50
2018-10-19T23:53:17.380Z,51.60
2018-10-19T23:55:48.324Z,51.60
2018-10-19T23:58:19.467Z,51.60
